sensor_id;sensor_type;location;lat;lon;timestamp;pressure;altitude;pressure_sealevel;temperature;humidity
23589;BME280;11972;48.078;11.876;2023-05-02T00:01:36;95418.09;;;9.27;100.00
23589;BME280;11972;48.078;11.876;2023-05-02T00:05:37;95421.72;;;9.26;100.00
23589;BME280;11972;48.078;11.876;2023-05-02T00:09:37;95419.09;;;9.26;100.00
23589;BME280;11972;48.078;11.876;2023-05-02T00:13:38;95412.00;;;9.27;100.00
23589;BME280;11972;48.078;11.876;2023-05-02T00:17:39;95411.19;;;9.26;100.00
23589;BME280;11972;48.078;11.876;2023-05-02T00:21:40;95413.81;;;9.26;100.00
23589;BME280;11972;48.078;11.876;2023-05-02T00:25:44;95414.78;;;9.25;100.00
23589;BME280;11972;48.078;11.876;2023-05-02T00:29:45;95415.78;;;9.24;100.00
23589;BME280;11972;48.078;11.876;2023-05-02T00:33:46;95414.16;;;9.23;100.00
23589;BME280;11972;48.078;11.876;2023-05-02T00:37:47;95417.16;;;9.20;100.00
23589;BME280;11972;48.078;11.876;2023-05-02T00:41:47;95402.00;;;9.22;100.00
23589;BME280;11972;48.078;11.876;2023-05-02T00:45:48;95406.59;;;9.20;100.00
23589;BME280;11972;48.078;11.876;2023-05-02T00:49:49;95407.75;;;9.17;100.00
23589;BME280;11972;48.078;11.876;2023-05-02T00:53:49;95416.19;;;9.13;100.00
23589;BME280;11972;48.078;11.876;2023-05-02T00:57:50;95408.47;;;9.11;100.00
23589;BME280;11972;48.078;11.876;2023-05-02T01:06:27;95413.63;;;9.05;100.00
23589;BME280;11972;48.078;11.876;2023-05-02T01:10:41;95415.63;;;9.03;100.00
23589;BME280;11972;48.078;11.876;2023-05-02T01:14:52;95420.91;;;9.03;100.00
23589;BME280;11972;48.078;11.876;2023-05-02T01:18:54;95413.34;;;9.00;100.00
23589;BME280;11972;48.078;11.876;2023-05-02T01:22:59;95413.88;;;8.95;100.00
23589;BME280;11972;48.078;11.876;2023-05-02T01:27:14;95407.13;;;8.92;100.00
23589;BME280;11972;48.078;11.876;2023-05-02T01:31:15;95412.44;;;8.84;100.00
23589;BME280;11972;48.078;11.876;2023-05-02T01:35:17;95419.56;;;8.76;100.00
23589;BME280;11972;48.078;11.876;2023-05-02T01:39:23;95423.53;;;8.72;100.00
23589;BME280;11972;48.078;11.876;2023-05-02T01:43:25;95432.63;;;8.69;100.00
23589;BME280;11972;48.078;11.876;2023-05-02T01:47:28;95420.59;;;8.66;100.00
23589;BME280;11972;48.078;11.876;2023-05-02T01:51:32;95424.41;;;8.64;100.00
23589;BME280;11972;48.078;11.876;2023-05-02T01:55:35;95430.66;;;8.63;100.00
23589;BME280;11972;48.078;11.876;2023-05-02T01:59:39;95428.84;;;8.63;100.00
23589;BME280;11972;48.078;11.876;2023-05-02T02:03:40;95430.66;;;8.63;100.00
23589;BME280;11972;48.078;11.876;2023-05-02T02:07:42;95428.69;;;8.65;100.00
23589;BME280;11972;48.078;11.876;2023-05-02T02:11:46;95447.47;;;8.62;100.00
23589;BME280;11972;48.078;11.876;2023-05-02T02:15:48;95445.97;;;8.59;100.00
23589;BME280;11972;48.078;11.876;2023-05-02T02:19:52;95452.44;;;8.57;100.00
23589;BME280;11972;48.078;11.876;2023-05-02T02:23:56;95447.50;;;8.54;100.00
23589;BME280;11972;48.078;11.876;2023-05-02T02:27:59;95442.56;;;8.51;100.00
23589;BME280;11972;48.078;11.876;2023-05-02T02:32:00;95447.53;;;8.45;100.00
23589;BME280;11972;48.078;11.876;2023-05-02T02:36:09;95449.19;;;8.38;100.00
23589;BME280;11972;48.078;11.876;2023-05-02T02:44:51;95453.88;;;8.12;100.00
23589;BME280;11972;48.078;11.876;2023-05-02T02:53:17;95458.88;;;7.82;100.00
23589;BME280;11972;48.078;11.876;2023-05-02T02:57:32;95459.53;;;7.68;100.00
23589;BME280;11972;48.078;11.876;2023-05-02T03:01:38;95473.97;;;7.56;100.00
23589;BME280;11972;48.078;11.876;2023-05-02T03:05:44;95470.03;;;7.52;100.00
23589;BME280;11972;48.078;11.876;2023-05-02T03:09:46;95463.66;;;7.46;100.00
23589;BME280;11972;48.078;11.876;2023-05-02T03:13:47;95474.47;;;7.43;100.00
23589;BME280;11972;48.078;11.876;2023-05-02T03:17:47;95472.53;;;7.37;100.00
23589;BME280;11972;48.078;11.876;2023-05-02T03:21:48;95472.34;;;7.30;100.00
23589;BME280;11972;48.078;11.876;2023-05-02T03:25:49;95472.50;;;7.20;100.00
23589;BME280;11972;48.078;11.876;2023-05-02T03:29:49;95480.69;;;7.17;100.00
23589;BME280;11972;48.078;11.876;2023-05-02T03:33:49;95479.88;;;7.17;100.00
23589;BME280;11972;48.078;11.876;2023-05-02T03:37:50;95492.34;;;7.15;100.00
23589;BME280;11972;48.078;11.876;2023-05-02T03:41:51;95484.31;;;7.16;100.00
23589;BME280;11972;48.078;11.876;2023-05-02T03:45:51;95484.47;;;7.23;100.00
23589;BME280;11972;48.078;11.876;2023-05-02T03:49:51;95487.44;;;7.28;100.00
23589;BME280;11972;48.078;11.876;2023-05-02T03:53:52;95490.53;;;7.24;100.00
23589;BME280;11972;48.078;11.876;2023-05-02T03:57:52;95499.25;;;7.16;100.00
23589;BME280;11972;48.078;11.876;2023-05-02T04:01:53;95502.19;;;7.05;100.00
23589;BME280;11972;48.078;11.876;2023-05-02T04:05:53;95509.56;;;7.01;100.00
23589;BME280;11972;48.078;11.876;2023-05-02T04:09:53;95515.00;;;7.08;100.00
23589;BME280;11972;48.078;11.876;2023-05-02T04:13:54;95509.09;;;7.22;100.00
23589;BME280;11972;48.078;11.876;2023-05-02T04:17:56;95513.69;;;7.28;100.00
23589;BME280;11972;48.078;11.876;2023-05-02T04:21:56;95519.97;;;7.35;100.00
23589;BME280;11972;48.078;11.876;2023-05-02T04:25:57;95524.22;;;7.44;100.00
23589;BME280;11972;48.078;11.876;2023-05-02T04:29:57;95529.34;;;7.54;100.00
23589;BME280;11972;48.078;11.876;2023-05-02T04:33:58;95538.38;;;7.68;100.00
23589;BME280;11972;48.078;11.876;2023-05-02T04:37:58;95540.38;;;7.74;100.00
23589;BME280;11972;48.078;11.876;2023-05-02T04:41:59;95540.38;;;7.82;100.00
23589;BME280;11972;48.078;11.876;2023-05-02T04:45:59;95544.47;;;7.93;100.00
23589;BME280;11972;48.078;11.876;2023-05-02T04:50:00;95552.84;;;8.05;100.00
23589;BME280;11972;48.078;11.876;2023-05-02T04:54:00;95552.66;;;8.14;100.00
23589;BME280;11972;48.078;11.876;2023-05-02T04:58:00;95553.97;;;8.18;100.00
23589;BME280;11972;48.078;11.876;2023-05-02T05:02:01;95565.50;;;8.26;100.00
23589;BME280;11972;48.078;11.876;2023-05-02T05:06:02;95572.72;;;8.32;100.00
23589;BME280;11972;48.078;11.876;2023-05-02T05:10:02;95577.50;;;8.44;100.00
23589;BME280;11972;48.078;11.876;2023-05-02T05:14:02;95586.19;;;8.61;100.00
23589;BME280;11972;48.078;11.876;2023-05-02T05:18:03;95592.56;;;8.75;100.00
23589;BME280;11972;48.078;11.876;2023-05-02T05:22:03;95601.22;;;8.92;100.00
23589;BME280;11972;48.078;11.876;2023-05-02T05:26:16;95604.63;;;9.09;100.00
23589;BME280;11972;48.078;11.876;2023-05-02T05:30:16;95611.81;;;9.23;100.00
23589;BME280;11972;48.078;11.876;2023-05-02T05:34:17;95621.81;;;9.36;100.00
23589;BME280;11972;48.078;11.876;2023-05-02T05:38:17;95624.22;;;9.45;100.00
23589;BME280;11972;48.078;11.876;2023-05-02T05:42:18;95628.81;;;9.52;100.00
23589;BME280;11972;48.078;11.876;2023-05-02T05:46:18;95631.22;;;9.61;100.00
23589;BME280;11972;48.078;11.876;2023-05-02T05:50:18;95632.53;;;9.65;100.00
23589;BME280;11972;48.078;11.876;2023-05-02T05:54:19;95633.00;;;9.69;100.00
23589;BME280;11972;48.078;11.876;2023-05-02T05:58:19;95639.25;;;9.76;100.00
23589;BME280;11972;48.078;11.876;2023-05-02T06:02:19;95651.44;;;9.77;100.00
23589;BME280;11972;48.078;11.876;2023-05-02T06:06:20;95644.19;;;9.79;100.00
23589;BME280;11972;48.078;11.876;2023-05-02T06:10:20;95650.03;;;9.89;100.00
23589;BME280;11972;48.078;11.876;2023-05-02T06:14:21;95653.97;;;9.93;100.00
23589;BME280;11972;48.078;11.876;2023-05-02T06:18:21;95657.72;;;9.99;100.00
23589;BME280;11972;48.078;11.876;2023-05-02T06:22:22;95658.47;;;10.08;100.00
23589;BME280;11972;48.078;11.876;2023-05-02T06:26:22;95666.00;;;10.19;100.00
23589;BME280;11972;48.078;11.876;2023-05-02T06:30:22;95660.53;;;10.29;100.00
23589;BME280;11972;48.078;11.876;2023-05-02T06:34:23;95659.00;;;10.34;100.00
23589;BME280;11972;48.078;11.876;2023-05-02T06:38:23;95663.59;;;10.55;100.00
23589;BME280;11972;48.078;11.876;2023-05-02T06:42:24;95666.00;;;10.80;100.00
23589;BME280;11972;48.078;11.876;2023-05-02T06:46:27;95664.59;;;11.07;100.00
23589;BME280;11972;48.078;11.876;2023-05-02T06:50:28;95669.88;;;11.36;100.00
23589;BME280;11972;48.078;11.876;2023-05-02T06:54:28;95672.09;;;11.84;100.00
23589;BME280;11972;48.078;11.876;2023-05-02T06:58:29;95674.69;;;12.35;100.00
23589;BME280;11972;48.078;11.876;2023-05-02T07:02:29;95677.78;;;12.60;100.00
23589;BME280;11972;48.078;11.876;2023-05-02T07:06:30;95684.06;;;12.80;100.00
23589;BME280;11972;48.078;11.876;2023-05-02T07:10:31;95686.59;;;12.95;100.00
23589;BME280;11972;48.078;11.876;2023-05-02T07:14:31;95680.16;;;13.04;100.00
23589;BME280;11972;48.078;11.876;2023-05-02T07:18:31;95677.22;;;12.93;100.00
23589;BME280;11972;48.078;11.876;2023-05-02T07:22:32;95680.56;;;13.08;100.00
23589;BME280;11972;48.078;11.876;2023-05-02T07:26:32;95678.56;;;13.10;100.00
23589;BME280;11972;48.078;11.876;2023-05-02T07:30:32;95683.50;;;13.20;100.00
23589;BME280;11972;48.078;11.876;2023-05-02T07:34:33;95675.50;;;13.41;100.00
23589;BME280;11972;48.078;11.876;2023-05-02T07:38:33;95676.41;;;13.55;100.00
23589;BME280;11972;48.078;11.876;2023-05-02T07:42:34;95677.59;;;13.46;100.00
23589;BME280;11972;48.078;11.876;2023-05-02T07:46:35;95676.94;;;13.44;100.00
23589;BME280;11972;48.078;11.876;2023-05-02T07:50:35;95673.53;;;13.56;100.00
23589;BME280;11972;48.078;11.876;2023-05-02T07:54:35;95678.22;;;13.96;100.00
23589;BME280;11972;48.078;11.876;2023-05-02T07:58:36;95675.44;;;14.30;100.00
23589;BME280;11972;48.078;11.876;2023-05-02T08:02:37;95677.47;;;14.28;100.00
23589;BME280;11972;48.078;11.876;2023-05-02T08:06:37;95684.03;;;14.46;100.00
23589;BME280;11972;48.078;11.876;2023-05-02T08:10:37;95684.50;;;14.49;100.00
23589;BME280;11972;48.078;11.876;2023-05-02T08:14:37;95682.47;;;14.71;100.00
23589;BME280;11972;48.078;11.876;2023-05-02T08:18:38;95694.94;;;14.91;100.00
23589;BME280;11972;48.078;11.876;2023-05-02T08:22:39;95698.00;;;15.21;100.00
23589;BME280;11972;48.078;11.876;2023-05-02T08:26:39;95693.91;;;15.25;100.00
23589;BME280;11972;48.078;11.876;2023-05-02T08:30:40;95696.97;;;15.28;100.00
23589;BME280;11972;48.078;11.876;2023-05-02T08:34:40;95702.66;;;15.38;100.00
23589;BME280;11972;48.078;11.876;2023-05-02T08:38:44;95707.81;;;15.33;100.00
23589;BME280;11972;48.078;11.876;2023-05-02T08:42:45;95701.69;;;15.20;100.00
23589;BME280;11972;48.078;11.876;2023-05-02T08:46:46;95705.97;;;15.27;100.00
23589;BME280;11972;48.078;11.876;2023-05-02T08:50:49;95718.84;;;15.30;100.00
23589;BME280;11972;48.078;11.876;2023-05-02T08:54:52;95715.56;;;15.42;100.00
23589;BME280;11972;48.078;11.876;2023-05-02T08:58:53;95724.38;;;15.55;100.00
23589;BME280;11972;48.078;11.876;2023-05-02T09:03:05;95716.38;;;15.55;100.00
23589;BME280;11972;48.078;11.876;2023-05-02T09:07:06;95729.06;;;15.47;100.00
23589;BME280;11972;48.078;11.876;2023-05-02T09:11:08;95736.03;;;15.48;100.00
23589;BME280;11972;48.078;11.876;2023-05-02T09:15:13;95736.41;;;15.58;100.00
23589;BME280;11972;48.078;11.876;2023-05-02T09:19:24;95733.28;;;15.87;100.00
23589;BME280;11972;48.078;11.876;2023-05-02T09:27:50;95741.16;;;16.27;100.00
23589;BME280;11972;48.078;11.876;2023-05-02T09:31:51;95749.75;;;16.29;100.00
23589;BME280;11972;48.078;11.876;2023-05-02T09:35:53;95751.72;;;15.96;100.00
23589;BME280;11972;48.078;11.876;2023-05-02T09:40:05;95741.94;;;16.34;100.00
23589;BME280;11972;48.078;11.876;2023-05-02T09:44:08;95748.25;;;16.78;100.00
23589;BME280;11972;48.078;11.876;2023-05-02T09:48:09;95745.69;;;16.97;100.00
23589;BME280;11972;48.078;11.876;2023-05-02T09:52:12;95748.19;;;16.92;100.00
23589;BME280;11972;48.078;11.876;2023-05-02T09:56:13;95750.50;;;16.81;100.00
23589;BME280;11972;48.078;11.876;2023-05-02T10:00:13;95750.50;;;16.81;100.00
23589;BME280;11972;48.078;11.876;2023-05-02T10:04:17;95752.88;;;16.58;100.00
23589;BME280;11972;48.078;11.876;2023-05-02T10:08:19;95755.84;;;16.36;100.00
23589;BME280;11972;48.078;11.876;2023-05-02T10:12:22;95755.59;;;16.06;100.00
23589;BME280;11972;48.078;11.876;2023-05-02T10:16:26;95755.88;;;15.78;100.00
23589;BME280;11972;48.078;11.876;2023-05-02T10:20:34;95761.00;;;15.60;100.00
23589;BME280;11972;48.078;11.876;2023-05-02T10:24:37;95765.13;;;15.56;100.00
23589;BME280;11972;48.078;11.876;2023-05-02T10:28:40;95756.09;;;15.57;100.00
23589;BME280;11972;48.078;11.876;2023-05-02T10:32:41;95758.34;;;15.67;100.00
23589;BME280;11972;48.078;11.876;2023-05-02T10:36:45;95755.63;;;15.86;100.00
23589;BME280;11972;48.078;11.876;2023-05-02T10:40:54;95761.16;;;15.92;100.00
23589;BME280;11972;48.078;11.876;2023-05-02T10:44:55;95750.31;;;15.86;100.00
23589;BME280;11972;48.078;11.876;2023-05-02T10:49:04;95751.34;;;16.37;100.00
23589;BME280;11972;48.078;11.876;2023-05-02T10:57:21;95746.31;;;17.67;100.00
23589;BME280;11972;48.078;11.876;2023-05-02T11:05:28;95738.56;;;18.02;100.00
23589;BME280;11972;48.078;11.876;2023-05-02T11:09:30;95741.53;;;18.13;100.00
23589;BME280;11972;48.078;11.876;2023-05-02T11:13:47;95738.69;;;17.89;100.00
23589;BME280;11972;48.078;11.876;2023-05-02T11:26:26;95753.75;;;16.45;100.00
23589;BME280;11972;48.078;11.876;2023-05-02T11:30:42;95750.25;;;16.13;100.00
23589;BME280;11972;48.078;11.876;2023-05-02T11:34:43;95765.94;;;15.10;100.00
23589;BME280;11972;48.078;11.876;2023-05-02T11:38:43;95780.38;;;13.37;100.00
23589;BME280;11972;48.078;11.876;2023-05-02T11:42:43;95787.06;;;11.66;100.00
23589;BME280;11972;48.078;11.876;2023-05-02T11:46:44;95787.56;;;11.17;100.00
23589;BME280;11972;48.078;11.876;2023-05-02T11:50:49;95795.53;;;11.32;100.00
23589;BME280;11972;48.078;11.876;2023-05-02T11:54:53;95795.22;;;11.65;100.00
23589;BME280;11972;48.078;11.876;2023-05-02T11:58:59;95789.50;;;11.38;100.00
23589;BME280;11972;48.078;11.876;2023-05-02T12:02:59;95787.06;;;11.52;100.00
23589;BME280;11972;48.078;11.876;2023-05-02T12:07:00;95783.25;;;11.84;100.00
23589;BME280;11972;48.078;11.876;2023-05-02T12:11:00;95778.22;;;12.04;100.00
23589;BME280;11972;48.078;11.876;2023-05-02T12:15:06;95788.81;;;11.59;100.00
23589;BME280;11972;48.078;11.876;2023-05-02T12:19:06;95789.28;;;11.78;100.00
23589;BME280;11972;48.078;11.876;2023-05-02T12:23:07;95799.88;;;12.07;100.00
23589;BME280;11972;48.078;11.876;2023-05-02T12:27:10;95809.91;;;11.97;100.00
23589;BME280;11972;48.078;11.876;2023-05-02T12:31:10;95818.13;;;11.73;100.00
23589;BME280;11972;48.078;11.876;2023-05-02T12:35:20;95827.50;;;11.60;100.00
23589;BME280;11972;48.078;11.876;2023-05-02T12:39:40;95829.69;;;11.57;100.00
23589;BME280;11972;48.078;11.876;2023-05-02T12:43:48;95837.69;;;11.49;100.00
23589;BME280;11972;48.078;11.876;2023-05-02T12:47:48;95837.03;;;11.32;100.00
23589;BME280;11972;48.078;11.876;2023-05-02T12:51:53;95838.91;;;11.23;100.00
23589;BME280;11972;48.078;11.876;2023-05-02T12:56:02;95843.31;;;11.31;100.00
23589;BME280;11972;48.078;11.876;2023-05-02T13:00:03;95841.84;;;11.28;100.00
23589;BME280;11972;48.078;11.876;2023-05-02T13:04:04;95831.88;;;11.53;100.00
23589;BME280;11972;48.078;11.876;2023-05-02T13:08:04;95826.34;;;11.92;100.00
23589;BME280;11972;48.078;11.876;2023-05-02T13:12:05;95828.72;;;11.87;100.00
23589;BME280;11972;48.078;11.876;2023-05-02T13:16:06;95818.56;;;12.21;100.00
23589;BME280;11972;48.078;11.876;2023-05-02T13:20:07;95818.69;;;12.85;100.00
23589;BME280;11972;48.078;11.876;2023-05-02T13:24:08;95813.31;;;13.21;100.00
23589;BME280;11972;48.078;11.876;2023-05-02T13:28:08;95803.94;;;13.81;100.00
23589;BME280;11972;48.078;11.876;2023-05-02T13:32:09;95804.75;;;14.23;100.00
23589;BME280;11972;48.078;11.876;2023-05-02T13:36:09;95796.72;;;14.51;100.00
23589;BME280;11972;48.078;11.876;2023-05-02T13:40:10;95793.06;;;14.59;100.00
23589;BME280;11972;48.078;11.876;2023-05-02T13:44:11;95789.63;;;14.65;100.00
23589;BME280;11972;48.078;11.876;2023-05-02T13:48:11;95781.88;;;14.97;100.00
23589;BME280;11972;48.078;11.876;2023-05-02T13:52:11;95786.00;;;15.12;100.00
23589;BME280;11972;48.078;11.876;2023-05-02T13:56:12;95786.81;;;15.26;100.00
23589;BME280;11972;48.078;11.876;2023-05-02T14:00:12;95788.06;;;15.37;100.00
23589;BME280;11972;48.078;11.876;2023-05-02T14:04:13;95793.38;;;15.57;100.00
23589;BME280;11972;48.078;11.876;2023-05-02T14:08:13;95802.81;;;15.73;100.00
23589;BME280;11972;48.078;11.876;2023-05-02T14:12:17;95810.78;;;15.53;100.00
23589;BME280;11972;48.078;11.876;2023-05-02T14:16:17;95818.16;;;15.24;100.00
23589;BME280;11972;48.078;11.876;2023-05-02T14:20:18;95825.25;;;14.84;100.00
23589;BME280;11972;48.078;11.876;2023-05-02T14:24:18;95838.59;;;14.43;100.00
23589;BME280;11972;48.078;11.876;2023-05-02T14:28:18;95839.88;;;14.12;100.00
23589;BME280;11972;48.078;11.876;2023-05-02T14:32:19;95841.25;;;14.01;100.00
23589;BME280;11972;48.078;11.876;2023-05-02T14:36:19;95847.88;;;13.84;100.00
23589;BME280;11972;48.078;11.876;2023-05-02T14:40:19;95852.75;;;13.52;100.00
23589;BME280;11972;48.078;11.876;2023-05-02T14:44:20;95851.31;;;13.28;100.00
23589;BME280;11972;48.078;11.876;2023-05-02T14:48:20;95852.94;;;13.08;100.00
23589;BME280;11972;48.078;11.876;2023-05-02T14:52:20;95863.63;;;12.93;100.00
23589;BME280;11972;48.078;11.876;2023-05-02T14:56:21;95861.00;;;12.78;100.00
23589;BME280;11972;48.078;11.876;2023-05-02T15:00:22;95875.03;;;12.57;100.00
23589;BME280;11972;48.078;11.876;2023-05-02T15:04:23;95880.09;;;12.37;100.00
23589;BME280;11972;48.078;11.876;2023-05-02T15:08:25;95874.72;;;12.31;100.00
23589;BME280;11972;48.078;11.876;2023-05-02T15:12:25;95873.63;;;12.25;100.00
23589;BME280;11972;48.078;11.876;2023-05-02T15:16:25;95881.31;;;12.20;100.00
23589;BME280;11972;48.078;11.876;2023-05-02T15:20:26;95875.91;;;12.13;100.00
23589;BME280;11972;48.078;11.876;2023-05-02T15:24:26;95874.38;;;12.19;100.00
23589;BME280;11972;48.078;11.876;2023-05-02T15:28:27;95860.47;;;12.32;100.00
23589;BME280;11972;48.078;11.876;2023-05-02T15:32:28;95849.63;;;12.27;100.00
23589;BME280;11972;48.078;11.876;2023-05-02T15:36:28;95834.72;;;12.26;100.00
23589;BME280;11972;48.078;11.876;2023-05-02T15:40:29;95829.28;;;12.49;100.00
23589;BME280;11972;48.078;11.876;2023-05-02T15:44:36;95814.94;;;12.79;100.00
23589;BME280;11972;48.078;11.876;2023-05-02T15:48:36;95799.66;;;13.24;100.00
23589;BME280;11972;48.078;11.876;2023-05-02T15:52:37;95799.06;;;13.85;100.00
23589;BME280;11972;48.078;11.876;2023-05-02T15:56:37;95797.78;;;14.57;100.00
23589;BME280;11972;48.078;11.876;2023-05-02T16:00:37;95794.41;;;15.16;100.00
23589;BME280;11972;48.078;11.876;2023-05-02T16:04:38;95802.88;;;16.69;100.00
23589;BME280;11972;48.078;11.876;2023-05-02T16:08:38;95794.59;;;18.64;100.00
23589;BME280;11972;48.078;11.876;2023-05-02T16:12:38;95808.28;;;19.81;100.00
23589;BME280;11972;48.078;11.876;2023-05-02T16:16:39;95804.66;;;20.11;100.00
23589;BME280;11972;48.078;11.876;2023-05-02T16:20:39;95811.41;;;20.25;100.00
23589;BME280;11972;48.078;11.876;2023-05-02T16:24:41;95826.69;;;20.13;100.00
23589;BME280;11972;48.078;11.876;2023-05-02T16:28:41;95831.81;;;20.03;100.00
23589;BME280;11972;48.078;11.876;2023-05-02T16:32:42;95832.25;;;20.59;100.00
23589;BME280;11972;48.078;11.876;2023-05-02T16:36:42;95825.75;;;21.12;100.00
23589;BME280;11972;48.078;11.876;2023-05-02T16:40:42;95832.97;;;20.19;100.00
23589;BME280;11972;48.078;11.876;2023-05-02T16:44:43;95834.19;;;18.74;100.00
23589;BME280;11972;48.078;11.876;2023-05-02T16:48:43;95848.34;;;17.51;100.00
23589;BME280;11972;48.078;11.876;2023-05-02T16:52:43;95852.97;;;16.54;100.00
23589;BME280;11972;48.078;11.876;2023-05-02T16:56:44;95859.13;;;15.76;100.00
23589;BME280;11972;48.078;11.876;2023-05-02T17:00:44;95868.69;;;15.24;100.00
23589;BME280;11972;48.078;11.876;2023-05-02T17:04:45;95880.06;;;14.78;100.00
23589;BME280;11972;48.078;11.876;2023-05-02T17:08:45;95888.88;;;14.44;100.00
23589;BME280;11972;48.078;11.876;2023-05-02T17:12:45;95897.59;;;13.97;100.00
23589;BME280;11972;48.078;11.876;2023-05-02T17:16:46;95914.09;;;13.21;100.00
23589;BME280;11972;48.078;11.876;2023-05-02T17:20:46;95918.41;;;12.71;100.00
23589;BME280;11972;48.078;11.876;2023-05-02T17:24:46;95927.50;;;12.47;100.00
23589;BME280;11972;48.078;11.876;2023-05-02T17:28:50;95930.78;;;12.05;100.00
23589;BME280;11972;48.078;11.876;2023-05-02T17:32:52;95930.97;;;11.80;100.00
23589;BME280;11972;48.078;11.876;2023-05-02T17:36:53;95937.53;;;11.70;100.00
23589;BME280;11972;48.078;11.876;2023-05-02T17:40:53;95942.78;;;11.55;100.00
23589;BME280;11972;48.078;11.876;2023-05-02T17:44:54;95945.13;;;11.27;100.00
23589;BME280;11972;48.078;11.876;2023-05-02T17:48:54;95951.34;;;10.88;100.00
23589;BME280;11972;48.078;11.876;2023-05-02T17:52:54;95955.75;;;10.64;100.00
23589;BME280;11972;48.078;11.876;2023-05-02T17:56:55;95964.88;;;10.54;100.00
23589;BME280;11972;48.078;11.876;2023-05-02T18:00:56;95961.88;;;10.57;100.00
23589;BME280;11972;48.078;11.876;2023-05-02T18:04:57;95965.16;;;10.67;100.00
23589;BME280;11972;48.078;11.876;2023-05-02T18:08:59;95964.81;;;10.70;100.00
23589;BME280;11972;48.078;11.876;2023-05-02T18:12:59;95955.56;;;10.74;100.00
23589;BME280;11972;48.078;11.876;2023-05-02T18:17:01;95960.66;;;10.76;100.00
23589;BME280;11972;48.078;11.876;2023-05-02T18:21:02;95964.13;;;10.76;100.00
23589;BME280;11972;48.078;11.876;2023-05-02T18:25:03;95954.25;;;10.70;100.00
23589;BME280;11972;48.078;11.876;2023-05-02T18:29:03;95960.50;;;10.69;100.00
23589;BME280;11972;48.078;11.876;2023-05-02T18:33:04;95963.16;;;10.69;100.00
23589;BME280;11972;48.078;11.876;2023-05-02T18:37:05;95969.25;;;10.69;100.00
23589;BME280;11972;48.078;11.876;2023-05-02T18:41:06;95971.78;;;10.63;100.00
23589;BME280;11972;48.078;11.876;2023-05-02T18:45:08;95987.31;;;10.58;100.00
23589;BME280;11972;48.078;11.876;2023-05-02T18:49:08;95992.13;;;10.54;100.00
23589;BME280;11972;48.078;11.876;2023-05-02T18:53:08;95994.28;;;10.42;100.00
23589;BME280;11972;48.078;11.876;2023-05-02T18:57:09;95999.94;;;10.31;100.00
23589;BME280;11972;48.078;11.876;2023-05-02T19:01:13;96004.38;;;10.23;100.00
23589;BME280;11972;48.078;11.876;2023-05-02T19:05:14;96017.25;;;10.17;100.00
23589;BME280;11972;48.078;11.876;2023-05-02T19:09:15;96010.50;;;10.07;100.00
23589;BME280;11972;48.078;11.876;2023-05-02T19:13:16;96014.97;;;9.90;100.00
23589;BME280;11972;48.078;11.876;2023-05-02T19:17:17;96021.75;;;9.76;100.00
23589;BME280;11972;48.078;11.876;2023-05-02T19:21:17;96028.16;;;9.65;100.00
23589;BME280;11972;48.078;11.876;2023-05-02T19:25:18;96025.00;;;9.54;100.00
23589;BME280;11972;48.078;11.876;2023-05-02T19:29:18;96017.44;;;9.42;100.00
23589;BME280;11972;48.078;11.876;2023-05-02T19:33:18;96019.88;;;9.28;100.00
23589;BME280;11972;48.078;11.876;2023-05-02T19:37:19;96028.72;;;9.10;100.00
23589;BME280;11972;48.078;11.876;2023-05-02T19:41:20;96030.84;;;8.99;100.00
23589;BME280;11972;48.078;11.876;2023-05-02T19:45:21;96034.44;;;8.89;100.00
23589;BME280;11972;48.078;11.876;2023-05-02T19:49:21;96042.66;;;8.86;100.00
23589;BME280;11972;48.078;11.876;2023-05-02T19:53:21;96039.03;;;8.87;100.00
23589;BME280;11972;48.078;11.876;2023-05-02T19:57:22;96040.66;;;8.88;100.00
23589;BME280;11972;48.078;11.876;2023-05-02T20:01:23;96043.28;;;8.88;100.00
23589;BME280;11972;48.078;11.876;2023-05-02T20:05:24;96046.88;;;8.79;100.00
23589;BME280;11972;48.078;11.876;2023-05-02T20:09:24;96053.38;;;8.59;100.00
23589;BME280;11972;48.078;11.876;2023-05-02T20:13:24;96054.88;;;8.35;100.00
23589;BME280;11972;48.078;11.876;2023-05-02T20:17:25;96055.91;;;8.16;100.00
23589;BME280;11972;48.078;11.876;2023-05-02T20:21:26;96047.81;;;7.92;100.00
23589;BME280;11972;48.078;11.876;2023-05-02T20:25:26;96052.78;;;7.77;100.00
23589;BME280;11972;48.078;11.876;2023-05-02T20:29:27;96048.44;;;7.68;100.00
23589;BME280;11972;48.078;11.876;2023-05-02T20:33:28;96057.41;;;7.57;100.00
23589;BME280;11972;48.078;11.876;2023-05-02T20:37:28;96057.84;;;7.53;100.00
23589;BME280;11972;48.078;11.876;2023-05-02T20:41:29;96067.84;;;7.49;100.00
23589;BME280;11972;48.078;11.876;2023-05-02T20:45:31;96059.56;;;7.44;100.00
23589;BME280;11972;48.078;11.876;2023-05-02T20:49:32;96068.34;;;7.35;100.00
23589;BME280;11972;48.078;11.876;2023-05-02T20:53:32;96060.13;;;7.20;100.00
23589;BME280;11972;48.078;11.876;2023-05-02T20:57:32;96059.38;;;7.10;100.00
23589;BME280;11972;48.078;11.876;2023-05-02T21:01:33;96072.44;;;7.02;100.00
23589;BME280;11972;48.078;11.876;2023-05-02T21:05:33;96066.78;;;6.96;100.00
23589;BME280;11972;48.078;11.876;2023-05-02T21:09:34;96067.38;;;6.90;100.00
23589;BME280;11972;48.078;11.876;2023-05-02T21:13:34;96060.75;;;6.86;100.00
23589;BME280;11972;48.078;11.876;2023-05-02T21:17:37;96063.28;;;6.78;100.00
23589;BME280;11972;48.078;11.876;2023-05-02T21:21:37;96056.44;;;6.67;100.00
23589;BME280;11972;48.078;11.876;2023-05-02T21:25:38;96056.75;;;6.55;100.00